• Join FlightAware (Why Join?)
  • Login
  • US Flag 
04:26PM EDT


 

Airport Tracker/Info


-or-


 

Live Flight TrackerFlight Track Log ✈ VNR160 ✈ 22-Apr-2013 ✈ KDWH - KCID

Flight Track Log - Related Links

Times and Time Zones

All times are in EDT time to prevent confusion due to time zone crossing. See the VNR160 flight status page for this flight to view local times or setup timezone preferences in your user account.

Time Position Orientation Groundspeed Altitude Reporting Facility
EDT Latitude Longitude Course Direction KTS MPH feet Rate Location/Type
06:15PM 30.0500 -95.5525 245° Southwest 135 155 700  Level Houston Center
06:16PM 30.0311 -95.5983 245° Southwest 211 243 1,800 660 Climbing Houston Center
06:17PM 30.0806 -95.6358 327° Northwest 239 275 2,000 60 Climbing Houston Center
06:18PM 30.1456 -95.6458 352° North 231 266 2,000 360 Level Houston Center
06:19PM 30.1967 -95.6294 15° North 211 243 2,800 900 Climbing Houston Center
06:20PM 30.2328 -95.5792 50° Northeast 204 235 3,800 1,320 Climbing Houston Center
06:21PM 30.2708 -95.5267 50° Northeast 217 250 5,600 1,980 Climbing Houston Center
06:22PM 30.3178 -95.4589 51° Northeast 225 259 8,200 2,340 Climbing Houston Center
06:23PM 30.3558 -95.4047 51° Northeast 231 266 10,100 1,380 Climbing Houston Center
06:24PM 30.4047 -95.3383 49° Northeast 255 293 11,100 540 Climbing Houston Center
06:25PM 30.4631 -95.2525 52° Northeast 297 342 11,400 720 Climbing Houston Center
06:26PM 30.5153 -95.1800 50° Northeast 295 339 12,700 1,320 Climbing Houston Center
06:27PM 30.5661 -95.1089 50° Northeast 289 333 14,200 1,440 Climbing Houston Center
06:28PM 30.6244 -95.0531 39° Northeast 276 318 15,700 1,440 Climbing Houston Center
06:29PM 30.6919 -95.0117 28° Northeast 271 312 17,200 1,080 Climbing Houston Center
06:30PM 30.7603 -94.9689 28° Northeast 279 321 18,000 360 Climbing Houston Center
06:31PM 30.8533 -94.9108 28° Northeast 314 361 18,000 660 Level Houston Center
06:32PM 30.9297 -94.8617 29° Northeast 312 359 19,400 1,380 Climbing Houston Center
06:33PM 31.0022 -94.8175 28° Northeast 295 339 20,900 1,500 Climbing Houston Center
06:34PM 31.0422 -94.7925 28° Northeast 293 337 21,900 1,680 Climbing Fort Worth Center
06:35PM 31.1058 -94.7494 30° Northeast 287 330 23,700 1,680 Climbing Fort Worth Center
06:36PM 31.1864 -94.7011 27° Northeast 281 323 25,300 1,560 Climbing Fort Worth Center
06:37PM 31.2542 -94.6553 30° Northeast 281 323 26,900 840 Climbing Fort Worth Center
06:38PM 31.3261 -94.6044 31° Northeast 286 329 27,000  Climbing Fort Worth Center
06:39PM 31.4125 -94.5436 31° Northeast 314 361 27,000  Level Fort Worth Center
06:40PM 31.4989 -94.4847 30° Northeast 341 392 27,000 420 Level Fort Worth Center
06:41PM 31.5831 -94.4261 31° Northeast 351 404 27,900 900 Climbing Fort Worth Center
06:42PM 31.6653 -94.3697 30° Northeast 346 398 28,900 960 Climbing Fort Worth Center
06:43PM 31.7453 -94.3133 31° Northeast 340 391 29,900 960 Climbing Fort Worth Center
06:44PM 31.8231 -94.2594 30° Northeast 328 377 30,900 900 Climbing Fort Worth Center
06:45PM 31.8931 -94.2106 31° Northeast 328 377 31,800 720 Climbing Fort Worth Center
06:46PM 31.9728 -94.1539 31° Northeast 323 372 32,400 600 Climbing Fort Worth Center
06:47PM 32.0528 -94.0994 30° Northeast 328 377 33,000 300 Climbing Fort Worth Center
06:48PM 32.1369 -94.0400 31° Northeast 334 384 33,000  Level Fort Worth Center
06:49PM 32.2247 -93.9706 34° Northeast 346 398 33,000  Level Fort Worth Center
06:50PM 32.3128 -93.9106 30° Northeast 360 414 33,000  Level Fort Worth Center
06:51PM 32.4028 -93.8433 32° Northeast 365 420 33,000  Level Fort Worth Center
06:52PM 32.4928 -93.7806 30° Northeast 370 426 33,000  Level Fort Worth Center
06:53PM 32.5828 -93.7153 31° Northeast 370 426 33,000  Level Fort Worth Center
06:54PM 32.6728 -93.6522 31° Northeast 370 426 33,000  Level Fort Worth Center
06:55PM 32.7647 -93.5892 30° Northeast 370 426 33,000  Level Fort Worth Center
06:56PM 32.8528 -93.5261 31° Northeast 370 426 33,000  Level Fort Worth Center
06:57PM 32.9444 -93.4578 32° Northeast 370 426 33,000  Level Fort Worth Center
06:58PM 33.0344 -93.3969 30° Northeast 370 426 33,000  Level Fort Worth Center
06:59PM 33.1219 -93.3308 32° Northeast 370 426 33,000  Level Fort Worth Center
07:01PM 33.3417 -93.1747 31° Northeast 381 438 33,000  Level Memphis Center
07:02PM 33.4286 -93.1103 32° Northeast 376 433 33,000  Level Memphis Center
07:03PM 33.5158 -93.0431 33° Northeast 371 427 33,000  Level Memphis Center
07:04PM 33.6067 -92.9811 30° Northeast 366 421 33,000  Level Memphis Center
07:05PM 33.6958 -92.9189 30° Northeast 366 421 33,000  Level Memphis Center
07:06PM 33.7847 -92.8514 32° Northeast 366 421 33,000  Level Memphis Center
07:07PM 33.8736 -92.7864 31° Northeast 366 421 33,000  Level Memphis Center
07:08PM 33.9647 -92.7214 31° Northeast 372 428 33,000  Level Memphis Center
07:09PM 34.0536 -92.6561 31° Northeast 367 422 33,000  Level Memphis Center
07:10PM 34.1383 -92.5856 35° Northeast 367 422 33,000  Level Memphis Center
07:11PM 34.2250 -92.5225 31° Northeast 367 422 33,000  Level Memphis Center
07:12PM 34.3139 -92.4544 32° Northeast 367 422 33,000  Level Memphis Center
07:13PM 34.3983 -92.3886 33° Northeast 367 422 33,000  Level Memphis Center
07:14PM 34.4869 -92.3225 32° Northeast 367 422 33,000  Level Memphis Center
07:15PM 34.5842 -92.2542 30° Northeast 367 422 33,000  Level Memphis Center
07:16PM 34.6725 -92.2056 24° Northeast 359 413 33,000  Level Memphis Center
07:17PM 34.7578 -92.2150 355° North 308 354 33,000  Level Memphis Center
07:18PM 34.8386 -92.2472 342° North 302 348 33,000  Level Memphis Center
07:19PM 34.9175 -92.2819 340° North 302 348 33,000 -180 Level Memphis Center
07:20PM 34.9961 -92.3142 341° North 302 348 32,700 -540 Descending Memphis Center
07:21PM 35.0833 -92.3492 342° North 308 354 32,000 -360 Descending Memphis Center
07:22PM 35.1642 -92.3814 342° North 313 360 32,000  Level Memphis Center
07:23PM 35.2469 -92.4164 341° North 313 360 32,000  Level Memphis Center
07:24PM 35.3278 -92.4517 340° North 307 353 32,000  Level Memphis Center
07:25PM 35.4106 -92.4867 341° North 307 353 32,000  Level Memphis Center
07:26PM 35.4914 -92.5219 340° North 307 353 32,000  Level Memphis Center
07:27PM 35.5722 -92.5572 340° North 307 353 32,000  Level Memphis Center
07:28PM 35.6550 -92.5900 342° North 307 353 32,000  Level Memphis Center
07:29PM 35.7356 -92.6256 340° North 307 353 32,000  Level Memphis Center
07:30PM 35.8142 -92.6583 341° North 307 353 32,000  Level Memphis Center
07:31PM 35.8950 -92.6939 340° North 307 353 32,000  Level Memphis Center
07:32PM 35.9756 -92.7294 340° North 307 353 32,000  Level Memphis Center
07:33PM 36.0561 -92.7653 340° North 307 353 32,000  Level Memphis Center
07:34PM 36.1369 -92.8011 340° North 307 353 32,000  Level Memphis Center
07:35PM 36.2175 -92.8369 340° North 307 353 32,000  Level Memphis Center
07:36PM 36.2981 -92.8703 342° North 307 353 32,000  Level Memphis Center
07:37PM 36.3786 -92.9089 339° North 307 353 32,000  Level Memphis Center
07:39PM 36.5072 -92.9642 341° North 313 360 32,000  Level Kansas City Center
07:40PM 36.6014 -93.0044 341° North 312 359 32,000  Level Kansas City Center
07:41PM 36.6844 -93.0406 341° North 313 360 32,000  Level Kansas City Center
07:42PM 36.7661 -93.0769 340° North 310 357 32,000  Level Kansas City Center
07:43PM 36.8519 -93.1139 341° North 313 360 32,000  Level Kansas City Center
07:44PM 36.9317 -93.1472 342° North 312 359 32,000  Level Kansas City Center
07:45PM 37.0297 -93.1922 340° North 310 357 32,000  Level Kansas City Center
07:46PM 37.1122 -93.2281 341° North 311 358 32,000  Level Kansas City Center
07:47PM 37.1947 -93.2642 341° North 312 359 32,000  Level Kansas City Center
07:48PM 37.2767 -93.2997 341° North 311 358 32,000  Level Kansas City Center
07:49PM 37.3642 -93.3256 347° North 320 368 32,000  Level Kansas City Center
07:50PM 37.4592 -93.3000 12° North 345 397 32,000  Level Kansas City Center
07:51PM 37.5564 -93.2681 15° North 357 411 32,000  Level Kansas City Center
07:52PM 37.6528 -93.2367 14° North 356 410 32,000  Level Kansas City Center
07:53PM 37.7478 -93.2028 16° North 353 406 32,000  Level Kansas City Center
07:54PM 37.8431 -93.1703 15° North 353 406 32,000  Level Kansas City Center
07:55PM 37.9397 -93.1369 15° North 355 409 32,000  Level Kansas City Center
07:56PM 38.0561 -93.0983 15° North 356 410 32,000  Level Kansas City Center
07:57PM 38.1553 -93.0631 16° North 362 417 32,000  Level Kansas City Center
07:58PM 38.2522 -93.0303 15° North 360 414 32,000  Level Kansas City Center
08:00PM 38.3483 -92.9981 15° North 357 411 32,000  Level Kansas City Center
08:01PM 38.4442 -92.9656 15° North 355 409 32,000  Level Kansas City Center
08:02PM 38.5414 -92.9319 15° North 356 410 32,000  Level Kansas City Center
08:03PM 38.6411 -92.8961 16° North 364 419 32,000  Level Kansas City Center
08:04PM 38.7408 -92.8614 15° North 367 422 32,000  Level Kansas City Center
08:05PM 38.8422 -92.8267 15° North 372 428 32,000  Level Kansas City Center
08:06PM 38.9447 -92.7900 16° North 378 435 32,000  Level Kansas City Center
08:07PM 39.0589 -92.7492 16° North 382 440 32,000  Level Kansas City Center
08:08PM 39.1517 -92.7169 15° North 383 441 32,000  Level Kansas City Center
08:09PM 39.2658 -92.6758 16° North 390 449 32,000  Level Kansas City Center
08:10PM 39.3711 -92.6375 16° North 394 453 32,000  Level Kansas City Center
08:11PM 39.4778 -92.6017 15° North 397 457 32,000  Level Kansas City Center
08:12PM 39.6061 -92.5542 16° North 401 461 32,000  Level Kansas City Center
08:13PM 39.7125 -92.5167 15° North 400 460 32,000  Level Kansas City Center
08:14PM 39.8211 -92.4800 15° North 404 465 32,000  Level Kansas City Center
08:15PM 39.9294 -92.4389 16° North 407 468 32,000  Level Kansas City Center
08:16PM 40.0383 -92.4008 15° North 409 471 32,000 -60 Level Kansas City Center
08:17PM 40.1533 -92.3600 15° North 407 468 31,900 -660 Descending Kansas City Center
08:18PM 40.2753 -92.3133 16° North 413 475 30,700 -1,080 Descending Kansas City Center
08:19PM 40.3858 -92.2736 15° North 419 482 29,800 -840 Descending Kansas City Center
08:20PM 40.4964 -92.2333 15° North 420 483 29,000 -600 Descending Kansas City Center
08:21PM 40.6056 -92.1939 15° North 415 478 28,600 -780 Descending Kansas City Center
08:22PM 40.6717 -92.1692 16° North 414 476 27,800 -1,440 Descending Chicago Center
08:23PM 40.8025 -92.1211 16° North 411 473 26,400 -1,380 Descending Chicago Center
08:24PM 40.9069 -92.0825 16° North 395 455 25,000 -1,440 Descending Chicago Center
08:25PM 41.0119 -92.0439 16° North 395 455 23,500 -1,500 Descending Chicago Center
08:26PM 41.1139 -92.0053 16° North 386 444 22,000 -1,500 Descending Chicago Center
08:27PM 41.2117 -91.9675 16° North 372 428 20,400 -1,620 Descending Chicago Center
08:28PM 41.3108 -91.9297 16° North 363 418 18,700 -1,680 Descending Chicago Center
08:29PM 41.4033 -91.8969 15° North 348 400 17,000 -1,920 Descending Chicago Center
08:30PM 41.5122 -91.8525 17° North 344 396 14,800 -2,040 Descending Chicago Center
08:31PM 41.6022 -91.8464 North 330 380 12,800 -2,100 Descending Chicago Center
08:32PM 41.6861 -91.8714 347° North 309 356 10,500 -2,280 Descending Chicago Center
08:33PM 41.7611 -91.8881 351° North 279 321 8,200 -2,520 Descending Chicago Center
08:34PM 41.8314 -91.9111 346° North 266 306 5,400 -2,280 Descending Chicago Center
08:35PM 41.9042 -91.9106 360° North 234 269 3,500 -1,380 Descending Chicago Center
08:36PM 41.8969 -91.8469 99° East 194 223 2,600 -720 Descending Chicago Center
08:37PM 41.9164 -91.7944 64° Northeast 175 201 2,100 -540 Descending Chicago Center
08:38PM 41.9153 -91.7431 92° East 157 181 1,500 -540 Descending Chicago Center
08:39PM 41.8900 -91.7106 136° Southeast 137 158 1,000 -540 Descending Chicago Center